Time;durP1;ratioP1;P1;durP2;ratioP2;P2;SDS_P1;SDS_P2;PMS_P1;PMS_P2;Temp;Humidity;BMP_temperature;BMP_pressure;BME280_temperature;BME280_humidity;BME280_pressure;Samples;Min_cycle;Max_cycle;Signal;HPM_P1;HPM_P2
2022/10/13 00:01:45;;;;;;;0.10;0.10;;;16.10;83.50;;;;;;4186402;28;20052;-69
2022/10/13 00:04:27;;;;;;;0.00;0.00;;;16.10;83.50;;;;;;4175730;28;20047;-65
2022/10/13 00:07:09;;;;;;;0.10;0.10;;;16.10;83.50;;;;;;4175220;28;20056;-65
2022/10/13 00:09:50;;;;;;;1.20;1.17;;;16.10;83.60;;;;;;4192722;28;20055;-65
2022/10/13 00:12:33;;;;;;;0.30;0.30;;;16.10;83.60;;;;;;4162578;28;20075;-65
2022/10/13 00:15:18;;;;;;;0.00;0.00;;;16.10;83.50;;;;;;4160631;28;20056;-70
2022/10/13 00:17:59;;;;;;;0.25;0.25;;;16.10;83.60;;;;;;4186817;28;20379;-69
2022/10/13 00:20:42;;;;;;;0.03;0.03;;;16.10;83.60;;;;;;4176760;28;20070;-68
2022/10/13 00:23:24;;;;;;;0.10;0.10;;;16.10;83.60;;;;;;4163945;28;20063;-69
2022/10/13 00:26:08;;;;;;;1.20;0.43;;;16.10;83.60;;;;;;4160847;28;20135;-69
2022/10/13 00:28:48;;;;;;;10.32;0.75;;;16.10;83.60;;;;;;4190503;28;20052;-69
2022/10/13 00:31:32;;;;;;;0.20;0.20;;;16.10;83.60;;;;;;4193963;28;20055;-70
2022/10/13 00:34:15;;;;;;;0.32;0.32;;;16.00;83.60;;;;;;4193045;28;20189;-69
2022/10/13 00:36:56;;;;;;;0.00;0.00;;;16.00;83.60;;;;;;4178001;28;20097;-69
2022/10/13 00:39:39;;;;;;;0.00;0.00;;;16.00;83.70;;;;;;4177098;28;20087;-69
2022/10/13 00:42:22;;;;;;;0.45;0.45;;;16.10;83.70;;;;;;4177847;28;20060;-68
2022/10/13 00:45:07;;;;;;;0.10;0.10;;;16.00;83.70;;;;;;4176550;28;20075;-69
2022/10/13 00:47:55;;;;;;;4.57;2.05;;;16.00;83.80;;;;;;4176542;28;20133;-69
2022/10/13 00:50:41;;;;;;;0.45;0.45;;;16.00;83.80;;;;;;4164988;28;20404;-65
2022/10/13 00:53:26;;;;;;;0.25;0.25;;;16.10;84.70;;;;;;4169129;28;20047;-64
2022/10/13 00:56:11;;;;;;;0.00;0.00;;;16.00;83.80;;;;;;4193066;28;20047;-65
2022/10/13 00:58:54;;;;;;;0.10;0.10;;;16.00;83.80;;;;;;4190486;28;20179;-64
2022/10/13 01:01:35;;;;;;;0.00;0.00;;;16.00;83.90;;;;;;4193013;28;20106;-65
2022/10/13 01:04:18;;;;;;;0.00;0.00;;;16.00;84.00;;;;;;4177671;28;20673;-64
2022/10/13 01:07:01;;;;;;;0.10;0.10;;;16.00;84.00;;;;;;4175707;28;20487;-65
2022/10/13 01:09:42;;;;;;;0.00;0.00;;;16.00;84.10;;;;;;4175746;28;20048;-64
2022/10/13 01:12:37;;;;;;;0.00;0.00;;;15.90;85.00;;;;;;4176150;28;20056;-64
2022/10/13 01:15:27;;;;;;;0.00;0.00;;;16.00;84.20;;;;;;4174842;28;20044;-65
2022/10/13 01:18:19;;;;;;;0.00;0.00;;;16.00;84.10;;;;;;4192290;28;20107;-64
2022/10/13 01:21:10;;;;;;;0.00;0.00;;;15.90;84.20;;;;;;4190817;28;20055;-66
2022/10/13 01:24:28;;;;;;;0.28;0.28;;;16.00;84.30;;;;;;4192096;28;20052;-65
2022/10/13 01:27:19;;;;;;;0.08;0.08;;;16.00;84.40;;;;;;4192705;28;20085;-65
2022/10/13 01:30:12;;;;;;;0.00;0.00;;;15.90;84.40;;;;;;4193052;28;20068;-65
2022/10/13 01:33:21;;;;;;;0.38;0.38;;;15.90;85.30;;;;;;4179700;28;20093;-66
2022/10/13 01:36:13;;;;;;;0.00;0.00;;;15.90;84.50;;;;;;4191975;28;20552;-65
2022/10/13 01:39:00;;;;;;;0.20;0.20;;;15.90;84.60;;;;;;4192103;28;20047;-66
2022/10/13 01:41:48;;;;;;;0.08;0.08;;;15.90;84.60;;;;;;4189634;28;20043;-65
2022/10/13 01:44:36;;;;;;;1.42;1.35;;;15.90;85.60;;;;;;4192318;28;20059;-66
2022/10/13 01:47:20;;;;;;;0.00;0.00;;;15.90;84.80;;;;;;4192571;28;20126;-69
2022/10/13 01:50:04;;;;;;;0.00;0.00;;;15.90;84.70;;;;;;4192563;28;20086;-69
2022/10/13 01:52:48;;;;;;;0.22;0.22;;;15.90;84.90;;;;;;4193064;28;20052;-69
2022/10/13 01:55:30;;;;;;;0.03;0.03;;;15.90;84.90;;;;;;4179873;28;20051;-66
2022/10/13 01:58:11;;;;;;;0.20;0.20;;;15.90;84.90;;;;;;4190459;28;20043;-66
2022/10/13 02:01:04;;;;;;;0.60;0.60;;;15.90;84.90;;;;;;4189653;28;20086;-66
2022/10/13 02:03:56;;;;;;;0.00;0.00;;;15.90;85.10;;;;;;4148099;28;20412;-67
2022/10/13 02:06:42;;;;;;;0.00;0.00;;;15.90;85.00;;;;;;4146327;28;20061;-66
2022/10/13 02:09:28;;;;;;;0.00;0.00;;;15.90;86.00;;;;;;4157726;28;20150;-66
2022/10/13 02:12:12;;;;;;;0.73;0.30;;;15.80;85.10;;;;;;4175466;28;20183;-66
2022/10/13 02:14:54;;;;;;;0.00;0.00;;;15.80;85.00;;;;;;4175658;28;20129;-65
2022/10/13 02:17:36;;;;;;;0.35;0.35;;;15.80;85.10;;;;;;4189586;28;20055;-65
2022/10/13 02:20:20;;;;;;;0.00;0.00;;;15.90;85.20;;;;;;4191896;28;20226;-69
2022/10/13 02:23:07;;;;;;;0.10;0.10;;;15.90;85.20;;;;;;4192336;28;20186;-71
2022/10/13 02:25:49;;;;;;;0.15;0.15;;;15.80;85.20;;;;;;4192201;28;20073;-69
2022/10/13 02:28:30;;;;;;;0.00;0.00;;;15.80;85.20;;;;;;4192340;28;20371;-69
2022/10/13 02:31:11;;;;;;;0.00;0.00;;;15.80;86.20;;;;;;4192694;28;20056;-69
2022/10/13 02:33:52;;;;;;;0.00;0.00;;;15.80;85.40;;;;;;4192341;28;20055;-68
2022/10/13 02:36:36;;;;;;;0.00;0.00;;;15.80;85.40;;;;;;4178458;28;20063;-68
2022/10/13 02:39:17;;;;;;;0.00;0.00;;;15.80;85.40;;;;;;4191641;28;20062;-68
2022/10/13 02:41:58;;;;;;;0.40;0.40;;;15.80;85.50;;;;;;4191874;28;20639;-68
2022/10/13 02:44:39;;;;;;;0.93;0.88;;;15.80;85.40;;;;;;4191839;28;20767;-69
2022/10/13 02:47:20;;;;;;;0.00;0.00;;;15.80;85.50;;;;;;4175014;28;20491;-69
2022/10/13 02:50:01;;;;;;;0.20;0.20;;;15.80;85.50;;;;;;4174615;28;20157;-69
2022/10/13 02:52:43;;;;;;;0.10;0.10;;;15.80;85.70;;;;;;4174486;28;20099;-68
2022/10/13 02:55:24;;;;;;;0.05;0.05;;;15.80;85.60;;;;;;4174202;28;20052;-69
2022/10/13 02:58:08;;;;;;;0.00;0.00;;;15.80;85.60;;;;;;4174001;28;20063;-69
2022/10/13 03:00:49;;;;;;;0.20;0.20;;;15.80;85.70;;;;;;4173988;28;20063;-69
2022/10/13 03:03:30;;;;;;;0.00;0.00;;;15.80;85.70;;;;;;4190605;28;20075;-69
2022/10/13 03:06:11;;;;;;;0.40;0.40;;;15.80;85.90;;;;;;4191469;28;20055;-70
2022/10/13 03:08:54;;;;;;;0.17;0.17;;;15.80;85.90;;;;;;4160758;28;20083;-69
2022/10/13 03:11:34;;;;;;;0.17;0.17;;;15.70;85.90;;;;;;4174178;28;20543;-69
2022/10/13 03:14:15;;;;;;;0.00;0.00;;;15.80;86.00;;;;;;4166267;28;20049;-69
2022/10/13 03:16:56;;;;;;;0.00;0.00;;;15.80;86.00;;;;;;4158375;28;20045;-69
2022/10/13 03:19:36;;;;;;;0.05;0.05;;;15.70;86.00;;;;;;4168779;28;20107;-69
2022/10/13 03:22:17;;;;;;;0.10;0.10;;;15.70;86.00;;;;;;4190931;28;20087;-69
2022/10/13 03:25:01;;;;;;;0.90;0.90;;;15.80;86.10;;;;;;4179317;28;20406;-68
2022/10/13 03:27:41;;;;;;;0.00;0.00;;;15.80;86.20;;;;;;4173271;28;20094;-69
2022/10/13 03:30:22;;;;;;;0.00;0.00;;;15.70;86.10;;;;;;4190717;28;20118;-69
2022/10/13 03:33:05;;;;;;;0.00;0.00;;;15.70;86.10;;;;;;4164873;28;20434;-68
2022/10/13 03:35:46;;;;;;;0.17;0.17;;;15.70;86.10;;;;;;4174497;28;20408;-68
2022/10/13 03:38:27;;;;;;;0.13;0.13;;;15.70;86.20;;;;;;4145458;28;20400;-69
2022/10/13 03:41:11;;;;;;;0.47;0.47;;;15.70;86.20;;;;;;4157958;28;20599;-69
2022/10/13 03:43:51;;;;;;;1.55;1.38;;;15.70;86.20;;;;;;4159000;28;20472;-69
2022/10/13 03:46:32;;;;;;;0.00;0.00;;;15.70;86.40;;;;;;4188588;28;20067;-68
2022/10/13 03:49:13;;;;;;;0.20;0.20;;;15.70;86.40;;;;;;4195004;28;20398;-69
2022/10/13 03:51:54;;;;;;;0.00;0.00;;;15.70;86.40;;;;;;4165280;28;20051;-68
2022/10/13 03:54:35;;;;;;;0.20;0.20;;;15.70;86.40;;;;;;4165859;28;20056;-69
2022/10/13 03:57:17;;;;;;;0.00;0.00;;;15.70;86.30;;;;;;4176951;28;20583;-68
2022/10/13 03:59:58;;;;;;;0.88;0.88;;;15.70;86.40;;;;;;4194260;28;20055;-69
2022/10/13 04:02:40;;;;;;;0.00;0.00;;;15.70;86.30;;;;;;4165653;28;20063;-69
2022/10/13 04:05:21;;;;;;;0.00;0.00;;;15.70;86.30;;;;;;4175151;28;20055;-64
2022/10/13 04:08:01;;;;;;;0.00;0.00;;;15.70;86.30;;;;;;4182108;28;20121;-64
2022/10/13 04:10:42;;;;;;;0.55;0.55;;;15.70;86.30;;;;;;4181296;28;20056;-64
2022/10/13 04:13:24;;;;;;;0.00;0.00;;;15.70;86.20;;;;;;4177534;28;20109;-66
2022/10/13 04:16:07;;;;;;;0.88;0.88;;;15.70;86.30;;;;;;4181585;28;20398;-70
2022/10/13 04:18:52;;;;;;;0.17;0.17;;;15.70;86.20;;;;;;4181638;28;20055;-65
2022/10/13 04:21:35;;;;;;;0.00;0.00;;;15.70;86.20;;;;;;4184222;28;20072;-65
2022/10/13 04:24:16;;;;;;;0.77;0.77;;;15.70;87.10;;;;;;4178534;28;20056;-67
2022/10/13 04:26:57;;;;;;;0.10;0.10;;;15.70;86.30;;;;;;4191709;28;20063;-65
2022/10/13 04:29:40;;;;;;;0.15;0.15;;;15.70;86.30;;;;;;4193146;28;20167;-65
2022/10/13 04:32:20;;;;;;;4.22;1.08;;;15.70;86.30;;;;;;4193862;28;20055;-66
2022/10/13 04:35:02;;;;;;;0.47;0.47;;;15.70;86.40;;;;;;4176872;28;20056;-65
2022/10/13 04:37:43;;;;;;;0.30;0.30;;;15.70;86.40;;;;;;4176617;28;20060;-66
2022/10/13 04:40:25;;;;;;;1.20;0.45;;;15.70;86.40;;;;;;4176940;28;20506;-66
2022/10/13 04:43:05;;;;;;;0.05;0.05;;;15.70;86.40;;;;;;4176877;28;20067;-66
2022/10/13 04:45:48;;;;;;;0.00;0.00;;;15.70;86.40;;;;;;4167291;28;20133;-66
2022/10/13 04:48:29;;;;;;;0.90;0.90;;;15.70;86.40;;;;;;4176280;28;20056;-65
2022/10/13 04:51:12;;;;;;;0.00;0.00;;;15.70;86.40;;;;;;4193275;28;20047;-66
2022/10/13 04:53:58;;;;;;;0.17;0.17;;;15.70;86.40;;;;;;4178799;28;20174;-65
2022/10/13 04:56:39;;;;;;;0.00;0.00;;;15.70;86.40;;;;;;4179731;28;20059;-65
2022/10/13 04:59:20;;;;;;;0.20;0.20;;;15.70;86.50;;;;;;4193305;28;20055;-66
2022/10/13 05:02:02;;;;;;;0.20;0.20;;;15.70;86.50;;;;;;4179733;28;20306;-65
2022/10/13 05:04:43;;;;;;;0.00;0.00;;;15.70;86.60;;;;;;4183555;28;20051;-65
2022/10/13 05:07:24;;;;;;;4.10;1.55;;;15.70;86.60;;;;;;4176474;28;20744;-65
2022/10/13 05:10:05;;;;;;;0.00;0.00;;;15.70;87.50;;;;;;4192992;28;20047;-65
2022/10/13 05:12:46;;;;;;;0.00;0.00;;;15.70;86.60;;;;;;4193961;28;20078;-69
2022/10/13 05:15:27;;;;;;;0.05;0.05;;;15.70;86.60;;;;;;4193439;28;20047;-69
2022/10/13 05:18:10;;;;;;;0.47;0.47;;;15.70;86.70;;;;;;4159630;28;20064;-70
2022/10/13 05:20:50;;;;;;;0.03;0.03;;;15.60;86.70;;;;;;4163974;28;20051;-70
2022/10/13 05:23:32;;;;;;;0.73;0.73;;;15.70;86.70;;;;;;4163700;28;20067;-70
2022/10/13 05:26:15;;;;;;;2.65;2.42;;;15.70;86.70;;;;;;4175749;28;20533;-69
2022/10/13 05:28:56;;;;;;;1.13;1.13;;;15.70;86.70;;;;;;4193223;28;20051;-69
2022/10/13 05:31:38;;;;;;;0.00;0.00;;;15.60;86.70;;;;;;4193069;28;20126;-68
2022/10/13 05:34:20;;;;;;;0.00;0.00;;;15.70;86.70;;;;;;4175323;28;20051;-70
2022/10/13 05:37:01;;;;;;;0.20;0.20;;;15.70;86.80;;;;;;4180337;28;20052;-69
2022/10/13 05:39:46;;;;;;;0.00;0.00;;;15.60;86.80;;;;;;4191043;28;20040;-70
2022/10/13 05:42:29;;;;;;;0.20;0.20;;;15.60;87.00;;;;;;4192094;28;20410;-70
2022/10/13 05:45:11;;;;;;;;;;;15.60;87.20;;;;;;4192412;28;20415;-69
2022/10/13 05:47:51;;;;;;;0.30;0.30;;;15.60;87.20;;;;;;4193339;28;19932;-70
2022/10/13 05:50:34;;;;;;;0.20;0.20;;;15.60;87.10;;;;;;4192812;28;20051;-69
2022/10/13 05:53:16;;;;;;;0.28;0.28;;;15.70;87.50;;;;;;4187796;28;20047;-69
2022/10/13 05:56:04;;;;;;;0.10;0.10;;;15.70;87.70;;;;;;4192801;28;20127;-68
2022/10/13 05:58:50;;;;;;;0.45;0.45;;;15.70;87.50;;;;;;4191338;28;20063;-67
2022/10/13 06:01:34;;;;;;;0.63;0.63;;;15.70;87.30;;;;;;4191898;28;20067;-67
2022/10/13 06:04:20;;;;;;;0.00;0.00;;;15.70;87.10;;;;;;4192770;28;20083;-67
2022/10/13 06:07:02;;;;;;;0.10;0.10;;;15.70;87.00;;;;;;4189538;28;20039;-68
2022/10/13 06:09:43;;;;;;;0.00;0.00;;;15.70;87.00;;;;;;4192320;28;20536;-69
2022/10/13 06:12:24;;;;;;;0.00;0.00;;;15.70;86.90;;;;;;4162823;28;20048;-67
2022/10/13 06:15:05;;;;;;;0.00;0.00;;;15.70;86.80;;;;;;4175700;28;20179;-70
2022/10/13 06:17:46;;;;;;;1.45;1.45;;;15.70;86.80;;;;;;4158525;28;20060;-70
2022/10/13 06:20:28;;;;;;;5.70;1.65;;;15.70;86.80;;;;;;4176023;28;20095;-70
2022/10/13 06:23:10;;;;;;;0.70;0.70;;;15.60;86.70;;;;;;4175974;28;20052;-67
2022/10/13 06:25:52;;;;;;;0.47;0.47;;;15.60;86.80;;;;;;4175512;28;20047;-70
2022/10/13 06:28:33;;;;;;;0.20;0.20;;;15.60;86.80;;;;;;4162781;28;20503;-71
2022/10/13 06:31:14;;;;;;;0.00;0.00;;;15.70;86.90;;;;;;4175543;28;20056;-70
2022/10/13 06:33:55;;;;;;;0.52;0.52;;;15.60;86.90;;;;;;4174579;28;20094;-68
2022/10/13 06:36:36;;;;;;;0.00;0.00;;;15.60;87.00;;;;;;4179449;28;20185;-71
2022/10/13 06:39:18;;;;;;;11.23;0.80;;;15.60;87.70;;;;;;4191947;28;20059;-71
2022/10/13 06:41:59;;;;;;;0.35;0.30;;;15.60;87.00;;;;;;4188814;28;20056;-67
2022/10/13 06:44:42;;;;;;;0.85;0.85;;;15.60;86.90;;;;;;4169800;28;20118;-70
2022/10/13 06:47:23;;;;;;;0.20;0.20;;;15.60;87.10;;;;;;4188471;28;20397;-68
2022/10/13 06:50:05;;;;;;;0.00;0.00;;;15.60;87.20;;;;;;4180838;28;20063;-67
2022/10/13 06:52:46;;;;;;;0.08;0.08;;;15.60;87.10;;;;;;4199641;28;20167;-67
2022/10/13 06:55:28;;;;;;;0.20;0.20;;;15.60;87.00;;;;;;4171438;28;20068;-67
2022/10/13 06:58:09;;;;;;;0.10;0.10;;;15.60;87.90;;;;;;4172018;28;20039;-70
2022/10/13 07:00:50;;;;;;;0.00;0.00;;;15.60;87.00;;;;;;4188807;28;20502;-70
2022/10/13 07:03:32;;;;;;;1.60;1.55;;;15.60;87.10;;;;;;4188789;28;20059;-67
2022/10/13 07:06:12;;;;;;;3.92;1.13;;;15.60;87.00;;;;;;4189400;28;20059;-67
2022/10/13 07:08:53;;;;;;;1.38;1.27;;;15.60;87.00;;;;;;4163818;28;20064;-68
2022/10/13 07:11:35;;;;;;;0.77;0.22;;;15.60;87.00;;;;;;4174746;28;20097;-70
2022/10/13 07:14:16;;;;;;;0.15;0.15;;;15.60;87.00;;;;;;4185330;28;20055;-70
2022/10/13 07:16:57;;;;;;;0.00;0.00;;;15.60;87.00;;;;;;4188293;28;20055;-70
2022/10/13 07:19:38;;;;;;;0.30;0.30;;;15.60;87.00;;;;;;4188151;28;20413;-68
2022/10/13 07:22:19;;;;;;;0.13;0.13;;;15.60;87.10;;;;;;4157617;28;20052;-68
2022/10/13 07:25:00;;;;;;;0.00;0.00;;;15.60;87.00;;;;;;4188765;28;20178;-67
2022/10/13 07:27:43;;;;;;;0.43;0.43;;;15.60;87.10;;;;;;4184072;28;20056;-69
2022/10/13 07:30:24;;;;;;;0.10;0.10;;;15.60;87.10;;;;;;4179900;28;20064;-69
2022/10/13 07:33:05;;;;;;;0.47;0.47;;;15.60;87.10;;;;;;4172487;28;20064;-69
2022/10/13 07:35:46;;;;;;;1.17;1.17;;;15.60;87.10;;;;;;4203617;28;20577;-69
2022/10/13 07:38:27;;;;;;;0.00;0.00;;;15.60;87.20;;;;;;4179827;28;20527;-69
2022/10/13 07:41:10;;;;;;;1.67;1.60;;;15.60;88.00;;;;;;4171627;28;20060;-69
2022/10/13 07:43:55;;;;;;;0.00;0.00;;;15.60;87.20;;;;;;4174875;28;20495;-70
2022/10/13 07:46:36;;;;;;;5.05;1.00;;;15.60;87.20;;;;;;4188757;28;20055;-69
2022/10/13 07:49:17;;;;;;;1.70;0.45;;;15.60;87.20;;;;;;4189042;28;20185;-69
2022/10/13 07:51:58;;;;;;;0.50;0.50;;;15.60;87.20;;;;;;4172310;28;20056;-68
2022/10/13 07:54:39;;;;;;;1.25;0.57;;;15.60;87.20;;;;;;4171740;28;20060;-68
2022/10/13 07:57:20;;;;;;;0.00;0.00;;;15.60;87.30;;;;;;4187768;28;20460;-68
2022/10/13 08:00:04;;;;;;;0.32;0.30;;;15.60;87.30;;;;;;4174838;28;20129;-68
2022/10/13 08:02:52;;;;;;;0.17;0.17;;;15.60;87.30;;;;;;4171036;28;20052;-66
2022/10/13 08:05:33;;;;;;;0.32;0.32;;;15.60;87.40;;;;;;4185365;28;20079;-67
2022/10/13 08:08:15;;;;;;;0.63;0.63;;;15.60;87.40;;;;;;4161838;28;20518;-68
2022/10/13 08:11:01;;;;;;;0.28;0.28;;;15.60;87.30;;;;;;4188959;28;20043;-70
2022/10/13 08:13:47;;;;;;;0.10;0.10;;;15.60;87.80;;;;;;4188964;28;20067;-69
2022/10/13 08:16:35;;;;;;;0.17;0.17;;;15.60;87.40;;;;;;4176756;28;20060;-70
2022/10/13 08:19:17;;;;;;;0.40;0.40;;;15.60;87.40;;;;;;4171663;28;20106;-69
2022/10/13 08:21:58;;;;;;;0.20;0.20;;;15.60;88.30;;;;;;4166241;28;20643;-70
2022/10/13 08:24:40;;;;;;;0.20;0.20;;;15.60;87.50;;;;;;4176321;28;20064;-69
2022/10/13 08:27:23;;;;;;;0.08;0.08;;;15.60;87.50;;;;;;4171746;28;20055;-69
2022/10/13 08:30:17;;;;;;;0.20;0.20;;;15.60;87.40;;;;;;4183006;28;20047;-69
2022/10/13 08:32:59;;;;;;;0.08;0.08;;;15.60;87.40;;;;;;4177247;28;20056;-69
2022/10/13 08:35:41;;;;;;;0.20;0.20;;;15.60;87.50;;;;;;4190672;28;20570;-69
2022/10/13 08:38:21;;;;;;;;;;;15.60;87.50;;;;;;4184469;28;20111;-69
2022/10/13 08:41:02;;;;;;;0.00;0.00;;;15.60;87.50;;;;;;4173787;28;19986;-69
2022/10/13 08:43:48;;;;;;;1.65;1.55;;;15.60;87.70;;;;;;4160981;28;20186;-69
2022/10/13 08:46:53;;;;;;;0.10;0.10;;;15.60;87.60;;;;;;4164730;28;20060;-69
2022/10/13 08:49:35;;;;;;;0.00;0.00;;;15.60;87.60;;;;;;4190855;28;20517;-69
2022/10/13 08:52:19;;;;;;;0.00;0.00;;;15.60;87.60;;;;;;4189825;28;20403;-68
2022/10/13 08:55:01;;;;;;;0.00;0.00;;;15.60;87.50;;;;;;4190109;28;20064;-68
2022/10/13 08:57:43;;;;;;;0.85;0.85;;;15.60;87.40;;;;;;4191051;28;20064;-68
2022/10/13 09:00:24;;;;;;;0.20;0.20;;;15.60;87.40;;;;;;4190659;28;20063;-74
2022/10/13 09:03:20;;;;;;;0.05;0.05;;;15.70;87.30;;;;;;4190422;28;20055;-70
2022/10/13 09:06:11;;;;;;;0.10;0.10;;;15.70;87.20;;;;;;4189460;28;21122;-76
2022/10/13 09:08:55;;;;;;;0.00;0.00;;;15.70;87.20;;;;;;4195584;28;20799;-75
2022/10/13 09:11:38;;;;;;;0.10;0.10;;;15.70;87.10;;;;;;4190397;28;20051;-75
2022/10/13 09:14:22;;;;;;;0.38;0.38;;;15.70;87.10;;;;;;4188292;28;20035;-76
2022/10/13 09:17:15;;;;;;;7.28;0.80;;;15.70;87.00;;;;;;4162095;28;20202;-75
2022/10/13 09:20:02;;;;;;;0.00;0.00;;;15.70;87.00;;;;;;4173493;28;20060;-75
2022/10/13 09:22:45;;;;;;;0.00;0.00;;;15.70;87.00;;;;;;4174015;28;20064;-70
2022/10/13 09:25:27;;;;;;;0.38;0.28;;;15.70;87.00;;;;;;4189667;28;20050;-69
2022/10/13 09:28:16;;;;;;;0.47;0.47;;;15.70;87.00;;;;;;4185586;28;20608;-69
2022/10/13 09:31:06;;;;;;;0.00;0.00;;;15.70;87.00;;;;;;4193255;28;20073;-69
2022/10/13 09:33:59;;;;;;;0.00;0.00;;;15.70;87.10;;;;;;4192671;28;20517;-70
2022/10/13 09:36:54;;;;;;;0.32;0.32;;;15.70;87.10;;;;;;4186112;28;20056;-75
2022/10/13 09:39:37;;;;;;;0.00;0.00;;;15.70;87.00;;;;;;4176972;28;20187;-70
2022/10/13 09:42:22;;;;;;;0.22;0.22;;;15.70;87.00;;;;;;4172519;28;20060;-70
2022/10/13 09:45:15;;;;;;;0.75;0.75;;;15.70;87.40;;;;;;4173488;28;20051;-69
2022/10/13 09:47:59;;;;;;;9.85;3.80;;;15.80;87.80;;;;;;4155581;28;20064;-70
2022/10/13 09:50:49;;;;;;;0.03;0.03;;;15.80;87.60;;;;;;4168831;28;20060;-70
2022/10/13 09:53:34;;;;;;;0.98;0.35;;;15.80;87.50;;;;;;4160184;28;20056;-76
2022/10/13 09:56:23;;;;;;;0.57;0.35;;;15.80;87.30;;;;;;4189836;28;20072;-74
2022/10/13 09:59:14;;;;;;;0.00;0.00;;;15.80;87.30;;;;;;4176995;28;20056;-73
2022/10/13 10:01:58;;;;;;;0.00;0.00;;;15.80;87.30;;;;;;4189441;28;20072;-76
2022/10/13 10:04:42;;;;;;;0.00;0.00;;;15.80;87.20;;;;;;4189785;28;20187;-75
2022/10/13 10:07:28;;;;;;;0.65;0.65;;;15.80;87.30;;;;;;4186618;28;20051;-76
2022/10/13 10:10:21;;;;;;;0.25;0.25;;;15.80;87.30;;;;;;4173375;28;20052;-76
2022/10/13 10:13:04;;;;;;;0.32;0.32;;;15.80;87.10;;;;;;4196132;28;20047;-77
2022/10/13 10:15:54;;;;;;;0.00;0.00;;;15.80;88.00;;;;;;4172500;28;20183;-77
2022/10/13 10:18:42;;;;;;;0.00;0.00;;;15.80;87.10;;;;;;4189238;28;20113;-77
2022/10/13 10:21:32;;;;;;;0.00;0.00;;;15.80;87.10;;;;;;4188507;28;20089;-76
2022/10/13 10:24:21;;;;;;;1.38;1.38;;;15.80;86.90;;;;;;4176167;28;20048;-76
2022/10/13 10:27:08;;;;;;;0.00;0.00;;;15.80;86.90;;;;;;4172216;28;20078;-75
2022/10/13 10:29:53;;;;;;;0.00;0.00;;;15.80;86.90;;;;;;4173221;28;20052;-75
2022/10/13 10:32:42;;;;;;;0.08;0.08;;;15.80;86.90;;;;;;4177965;28;20206;-76
2022/10/13 10:35:36;;;;;;;0.10;0.10;;;15.80;86.80;;;;;;4199800;28;20659;-72
2022/10/13 10:38:32;;;;;;;0.55;0.55;;;15.80;87.30;;;;;;4174086;28;20052;-73
2022/10/13 10:41:24;;;;;;;0.20;0.20;;;15.80;87.70;;;;;;4180003;28;20078;-73
2022/10/13 10:44:10;;;;;;;1.05;1.05;;;15.90;87.70;;;;;;4186320;28;20056;-69
2022/10/13 10:46:57;;;;;;;2.15;1.17;;;15.90;87.70;;;;;;4162296;28;20503;-70
2022/10/13 10:49:38;;;;;;;0.38;0.38;;;15.90;87.70;;;;;;4188248;28;20063;-67
2022/10/13 10:52:23;;;;;;;;;;;15.90;87.60;;;;;;4189231;28;20398;-66
2022/10/13 10:55:20;;;;;;;0.17;0.17;;;15.90;87.50;;;;;;4181021;28;19931;-66
2022/10/13 10:58:12;;;;;;;0.15;0.15;;;15.90;87.40;;;;;;4181693;28;20456;-67
2022/10/13 11:00:59;;;;;;;0.10;0.10;;;15.90;87.40;;;;;;4161788;28;20071;-68
2022/10/13 11:03:52;;;;;;;0.35;0.35;;;15.90;87.40;;;;;;4197072;28;20054;-68
2022/10/13 11:06:34;;;;;;;0.20;0.20;;;15.90;87.30;;;;;;4187744;28;20402;-70
2022/10/13 11:09:35;;;;;;;0.32;0.32;;;15.90;87.30;;;;;;4171482;28;20522;-70
2022/10/13 11:12:23;;;;;;;0.28;0.28;;;15.90;87.40;;;;;;4174760;28;20055;-69
2022/10/13 11:15:10;;;;;;;0.10;0.10;;;15.90;87.30;;;;;;4188022;28;20078;-68
2022/10/13 11:17:51;;;;;;;0.20;0.20;;;15.90;87.20;;;;;;4171855;28;20071;-68
2022/10/13 11:23:30;;;;;;;0.00;0.00;;;15.90;87.20;;;;;;4198275;27;20874;-69
2022/10/13 11:26:30;;;;;;;1.90;0.28;;;15.90;87.20;;;;;;4196998;28;20043;-69
2022/10/13 11:29:18;;;;;;;0.10;0.10;;;15.90;87.20;;;;;;4194542;27;20071;-69
2022/10/13 11:32:00;;;;;;;0.28;0.25;;;15.90;87.20;;;;;;4188237;28;20195;-70
2022/10/13 11:34:58;;;;;;;1.15;1.08;;;15.90;87.20;;;;;;4196908;27;20051;-70
2022/10/13 11:37:49;;;;;;;0.00;0.00;;;15.90;87.20;;;;;;4202104;27;20048;-68
2022/10/13 11:41:09;;;;;;;0.20;0.20;;;15.90;87.20;;;;;;4184882;28;20407;-68
2022/10/13 11:43:58;;;;;;;11.15;1.35;;;15.90;87.10;;;;;;4185173;28;20167;-69
2022/10/13 11:46:59;;;;;;;0.00;0.00;;;15.90;87.10;;;;;;4186068;28;20055;-69
2022/10/13 11:50:00;;;;;;;0.55;0.55;;;15.90;87.20;;;;;;4185591;28;20372;-69
2022/10/13 11:52:57;;;;;;;0.23;0.23;;;15.90;87.20;;;;;;4189729;27;20403;-69
2022/10/13 11:55:47;;;;;;;0.63;0.47;;;15.90;87.10;;;;;;4201723;27;20298;-70
2022/10/13 11:58:31;;;;;;;1.33;1.30;;;15.90;87.20;;;;;;4203071;27;20047;-69
2022/10/13 12:01:15;;;;;;;0.52;0.52;;;15.90;87.20;;;;;;4202587;27;20148;-68
2022/10/13 12:03:56;;;;;;;0.10;0.10;;;15.90;87.20;;;;;;4203336;27;20055;-69
2022/10/13 12:06:39;;;;;;;0.20;0.20;;;15.90;87.20;;;;;;4196942;28;20055;-69
2022/10/13 12:09:21;;;;;;;0.00;0.00;;;15.90;87.10;;;;;;4186999;27;20055;-69
2022/10/13 12:12:06;;;;;;;0.10;0.10;;;15.90;87.10;;;;;;4200122;27;20043;-69
2022/10/13 12:14:51;;;;;;;0.00;0.00;;;15.90;87.10;;;;;;4202203;28;20137;-69
2022/10/13 12:17:37;;;;;;;0.00;0.00;;;15.90;87.10;;;;;;4202930;27;20043;-70
2022/10/13 12:20:22;;;;;;;0.28;0.28;;;15.90;87.10;;;;;;4202558;27;20050;-69
2022/10/13 12:23:02;;;;;;;0.28;0.28;;;15.90;87.00;;;;;;4200802;28;20993;-69
2022/10/13 12:25:47;;;;;;;0.00;0.00;;;15.90;87.00;;;;;;4204412;27;20190;-69
2022/10/13 12:28:31;;;;;;;0.65;0.65;;;15.90;87.00;;;;;;4207599;27;20055;-69
2022/10/13 12:31:19;;;;;;;0.00;0.00;;;15.90;87.10;;;;;;4208228;28;20048;-68
2022/10/13 12:34:02;;;;;;;0.82;0.82;;;15.90;87.10;;;;;;4199032;27;20518;-68
2022/10/13 12:36:45;;;;;;;0.00;0.00;;;16.00;87.00;;;;;;4194162;28;20051;-68
2022/10/13 12:39:27;;;;;;;0.00;0.00;;;16.00;87.00;;;;;;4195695;28;20086;-67
2022/10/13 12:42:12;;;;;;;0.20;0.20;;;16.00;87.00;;;;;;4196145;28;20074;-68
2022/10/13 12:44:54;;;;;;;0.45;0.45;;;16.00;87.00;;;;;;4196503;28;20047;-68
2022/10/13 12:47:48;;;;;;;0.00;0.00;;;16.00;87.00;;;;;;4190065;28;20145;-68
2022/10/13 12:50:37;;;;;;;1.90;0.65;;;16.00;87.00;;;;;;4178487;28;20048;-68
2022/10/13 12:53:25;;;;;;;0.00;0.00;;;16.00;87.00;;;;;;4175628;28;20071;-70
2022/10/13 12:56:07;;;;;;;0.45;0.45;;;16.00;86.90;;;;;;4184187;28;20052;-69
2022/10/13 12:58:50;;;;;;;1.45;1.45;;;16.00;86.90;;;;;;4190234;28;20051;-69
2022/10/13 13:01:32;;;;;;;0.43;0.40;;;16.00;87.00;;;;;;4186425;28;20047;-66
2022/10/13 13:04:31;;;;;;;0.05;0.05;;;16.00;87.80;;;;;;4181781;28;20810;-66
2022/10/13 13:07:35;;;;;;;0.00;0.00;;;16.00;86.90;;;;;;4164469;28;20056;-66
2022/10/13 13:10:19;;;;;;;6.93;0.95;;;16.00;86.90;;;;;;4180446;28;20056;-69
2022/10/13 13:13:14;;;;;;;0.00;0.00;;;16.00;86.90;;;;;;4180573;28;20063;-68
2022/10/13 13:16:12;;;;;;;0.40;0.40;;;16.00;87.00;;;;;;4182851;28;20071;-68
2022/10/13 13:18:53;;;;;;;0.85;0.85;;;16.00;87.00;;;;;;4179936;28;20545;-68
2022/10/13 13:21:35;;;;;;;0.00;0.00;;;16.00;86.80;;;;;;4191923;28;20075;-69
2022/10/13 13:24:16;;;;;;;0.65;0.65;;;16.00;86.90;;;;;;4175747;28;20051;-69
2022/10/13 13:27:18;;;;;;;0.32;0.32;;;16.00;86.90;;;;;;4174497;28;20122;-68
2022/10/13 13:29:59;;;;;;;0.08;0.08;;;16.00;86.90;;;;;;4174995;28;20118;-69
2022/10/13 13:32:41;;;;;;;0.30;0.30;;;16.00;86.90;;;;;;4174351;28;20633;-68
2022/10/13 13:35:22;;;;;;;0.20;0.20;;;16.00;86.80;;;;;;4190805;28;20105;-69
2022/10/13 13:38:05;;;;;;;0.45;0.45;;;16.10;87.00;;;;;;4189989;28;20517;-69
2022/10/13 13:40:46;;;;;;;0.00;0.00;;;16.10;87.00;;;;;;4190390;28;20269;-68
2022/10/13 13:43:27;;;;;;;0.00;0.00;;;16.00;87.00;;;;;;4190159;28;20077;-68
2022/10/13 13:46:15;;;;;;;0.55;0.55;;;16.10;87.00;;;;;;4189068;28;20117;-67
2022/10/13 13:48:56;;;;;;;0.20;0.20;;;16.00;87.00;;;;;;4189272;28;20052;-68
2022/10/13 13:51:37;;;;;;;0.00;0.00;;;16.10;87.00;;;;;;4189081;28;20056;-68
2022/10/13 13:54:19;;;;;;;0.00;0.00;;;16.10;87.00;;;;;;4189308;28;20054;-68
2022/10/13 13:57:00;;;;;;;0.52;0.52;;;16.10;87.00;;;;;;4189877;28;20047;-69
2022/10/13 13:59:43;;;;;;;0.00;0.00;;;16.00;86.90;;;;;;4189770;28;20136;-69
2022/10/13 14:02:24;;;;;;;0.00;0.00;;;16.10;87.00;;;;;;4189027;28;20055;-69
2022/10/13 14:05:06;;;;;;;2.08;1.98;;;16.10;87.00;;;;;;4189535;28;20067;-70
2022/10/13 14:07:47;;;;;;;0.00;0.00;;;16.10;87.10;;;;;;4189275;28;20495;-69
2022/10/13 14:10:30;;;;;;;0.10;0.10;;;16.10;87.10;;;;;;4190037;28;20403;-69
2022/10/13 14:13:10;;;;;;;0.10;0.10;;;16.10;87.00;;;;;;4188534;28;20071;-69
2022/10/13 14:15:57;;;;;;;0.08;0.08;;;16.10;86.90;;;;;;4189955;28;20067;-69
2022/10/13 14:18:38;;;;;;;0.35;0.35;;;16.10;86.90;;;;;;4189452;28;20093;-69
2022/10/13 14:21:19;;;;;;;0.10;0.10;;;16.10;86.90;;;;;;4188035;28;20145;-69